Montijo, Spain
Current Conditions -  °F | °C
As of 1:00 AM on Thursday 23 Oct 2014 (Local Time) from LEBZ Reporting Station
Clear Clear  
Wind Chill: 63°   Ceiling: Unl
Heat Index: 63°   Visibility: 6mi
Dew Point: 52°   Wind: 0mph
Humidity: 68%   Direction: NA
Pressure: 30.24"   Gusts: NA
Location:  38.91°N, 6.62°W
Report Text: LEBZ 222300Z AUTO 00000KT CAVOK 17/11 Q1024
Loading
Personal Weather Stations






























Interactive Weather Map
Tropical Storm Tracking
New forecast layout! Learn more

10-Day Weather Forecast

Advertisements
Track Severe Weather on mobile